首页
METAR-TAF:

METAR-TAF

机场 :

萨尔瓦多奥斯卡·阿努尔福·罗梅罗-伊-加尔达梅斯主教国际机场

萨尔瓦多, 萨尔瓦多

纬度: 13-26N, 经度: 089-03W, 海拔: 25米

当前天气观测

该预报发布于45分钟前的10:00 UTC
风速3节,风向北转东北,在东转东北之间变化
温度 27°C
湿度 89%
气压 1011 hPa
能见度10公里或以上
少量云层高于6400英尺

METAR: MSLP 181000Z 02003KT 350V060 9999 FEW064 27/25 Q1011 A2985 NOSIG

时间: 04:45 (10:45 UTC)

预报

该预报发布于7小时和20分钟前的03:25 UTC
预报有效从18日的 06点(UTC)到 19日的 06点(UTC)
风速5节,风向北转东北
能见度10公里或以上
少量云层高于2000英尺
少量云层高于3700英尺, 积雨云.
散云层高于6700英尺
从 18日的 1000点(UTC)
风速6节,风向北转东北
能见度10公里或以上
少量云层高于2300英尺
从 18日的 1800点(UTC)
风速8节,风向西南
能见度10公里或以上
少量云层高于3300英尺
少量云层高于3700英尺, 积雨云.
从 19日的 0000点(UTC)
风速3节,风向多变
能见度10公里或以上
少量云层高于2300英尺
少量云层高于3700英尺, 积雨云.
短暂存在
从 19日的 02点(UTC)到 19日的 05点(UTC)
风速5节,风向
能見度: 5000
散云层高于2000英尺
散云层高于3300英尺, 积雨云.
雷暴, 雨,

TAF: MSLP 180325Z 1806/1906 02005KT 9999 FEW020 FEW037CB SCT067 TX34/1818Z TN24/1811Z FM181000 03006KT 9999 FEW023 FM181800 22008KT 9999 FEW033 FEW037CB FM190000 VRB03KT 9999 FEW023 FEW037CB TEMPO 1902/1905 01005KT 5000 TSRA SCT020 SCT033CB

超过4000个机场的气象观测和天气预报(METAR&TAF报告)。

可查询的气象台以黄色和红色小点在地图上表示。

将鼠标移到小点上方,可查看气象台名称。

然后点击查看天气观测和预报。

如需切换地图:点击带黑十字的绿色按钮放大地图;点击带横线的绿色按钮缩小地图;或者点击绿色箭头查看邻近地区的地图。


METAR-TAF: